createdAt,value
2023-05-14T00:01:08.444Z,3.03
2023-05-14T00:02:21.013Z,2.33
2023-05-14T00:03:27.238Z,3.58
2023-05-14T00:04:34.386Z,2.83
2023-05-14T00:05:44.598Z,2.53
2023-05-14T00:06:49.879Z,3.05
2023-05-14T00:07:54.330Z,2.58
2023-05-14T00:08:58.994Z,3.17
2023-05-14T00:10:03.638Z,2.47
2023-05-14T00:11:09.175Z,2.20
2023-05-14T00:12:25.350Z,2.92
2023-05-14T00:13:36.129Z,3.88
2023-05-14T00:14:48.192Z,3.20
2023-05-14T00:15:52.259Z,2.65
2023-05-14T00:16:56.203Z,3.30
2023-05-14T00:18:01.112Z,2.53
2023-05-14T00:19:05.396Z,3.13
2023-05-14T00:20:12.339Z,3.05
2023-05-14T00:21:17.419Z,3.67
2023-05-14T00:22:27.384Z,3.05
2023-05-14T00:23:31.216Z,2.08
2023-05-14T00:24:36.037Z,2.75
2023-05-14T00:25:40.151Z,2.58
2023-05-14T00:26:43.916Z,2.90
2023-05-14T00:27:48.010Z,3.00
2023-05-14T00:28:52.418Z,3.45
2023-05-14T00:29:56.513Z,3.00
2023-05-14T00:31:00.774Z,2.30
2023-05-14T00:32:05.356Z,2.70
2023-05-14T00:33:12.051Z,2.70
2023-05-14T00:34:16.307Z,2.50
2023-05-14T00:35:21.761Z,2.50
2023-05-14T00:36:26.060Z,2.50
2023-05-14T00:37:30.065Z,2.58
2023-05-14T00:38:34.151Z,2.90
2023-05-14T00:39:38.111Z,3.72
2023-05-14T00:40:46.031Z,3.20
2023-05-14T00:41:50.762Z,3.53
2023-05-14T00:42:56.187Z,3.22
2023-05-14T00:44:01.061Z,2.58
2023-05-14T00:45:08.604Z,2.90
2023-05-14T00:46:14.398Z,2.95
2023-05-14T00:47:18.598Z,2.92
2023-05-14T00:48:25.444Z,3.03
2023-05-14T00:49:32.806Z,4.20
2023-05-14T00:50:37.661Z,2.67
2023-05-14T00:51:42.758Z,2.75
2023-05-14T00:52:47.995Z,3.55
2023-05-14T00:53:53.646Z,3.13
2023-05-14T00:54:59.229Z,2.15
2023-05-14T00:56:04.645Z,2.78
2023-05-14T00:57:09.322Z,2.58
2023-05-14T00:58:15.265Z,3.72
2023-05-14T00:59:19.544Z,2.55
2023-05-14T01:00:23.757Z,2.53
2023-05-14T01:01:33.421Z,3.13
2023-05-14T01:04:19.046Z,3.72
2023-05-14T01:06:03.156Z,3.13
2023-05-14T01:08:08.444Z,2.63
2023-05-14T01:10:08.330Z,3.88
2023-05-14T01:11:36.107Z,3.33
2023-05-14T01:12:59.785Z,2.47
2023-05-14T01:14:21.500Z,2.72
2023-05-14T01:15:34.760Z,2.60
2023-05-14T01:16:45.020Z,3.20
2023-05-14T01:18:09.110Z,2.70
2023-05-14T01:19:37.948Z,3.05
2023-05-14T01:20:42.221Z,2.55
2023-05-14T01:21:46.736Z,2.83
2023-05-14T01:23:00.384Z,2.95
2023-05-14T01:24:12.132Z,2.60
2023-05-14T01:25:31.558Z,3.08
2023-05-14T01:26:39.266Z,2.45
2023-05-14T01:28:19.393Z,2.35
2023-05-14T01:29:33.402Z,2.75
2023-05-14T01:31:37.622Z,3.20
2023-05-14T01:32:45.358Z,2.70
2023-05-14T01:33:51.681Z,2.58
2023-05-14T01:35:03.814Z,2.97
2023-05-14T01:36:15.877Z,3.10
2023-05-14T01:37:27.834Z,2.95
2023-05-14T01:38:39.836Z,2.75
2023-05-14T01:39:54.989Z,3.05
2023-05-14T01:41:28.151Z,3.75
2023-05-14T01:42:36.536Z,2.65
2023-05-14T01:43:41.473Z,3.13
2023-05-14T01:44:45.985Z,2.58
2023-05-14T01:45:56.848Z,2.80
2023-05-14T01:47:13.508Z,3.10
2023-05-14T01:48:30.122Z,2.75
2023-05-14T01:49:37.732Z,3.35
2023-05-14T01:50:42.936Z,3.20
2023-05-14T01:51:46.835Z,3.13
2023-05-14T01:52:53.594Z,1.85
2023-05-14T01:54:05.143Z,3.45
2023-05-14T01:55:12.859Z,3.40
2023-05-14T01:56:26.841Z,2.92
2023-05-14T01:57:31.428Z,2.90
2023-05-14T01:58:35.432Z,3.10
2023-05-14T01:59:47.037Z,2.65
2023-05-14T11:12:51.004Z,0.98
2023-05-14T11:14:13.417Z,1.33
2023-05-14T11:15:24.752Z,1.05
2023-05-14T11:16:32.117Z,0.82
2023-05-14T11:17:43.486Z,1.10
2023-05-14T11:19:05.714Z,1.48
2023-05-14T11:20:12.284Z,0.88
2023-05-14T11:21:19.633Z,1.15
2023-05-14T11:22:29.772Z,1.10
2023-05-14T11:23:45.841Z,1.00
2023-05-14T11:24:51.322Z,0.90
2023-05-14T11:26:22.963Z,1.83
2023-05-14T11:27:32.402Z,0.80
2023-05-14T11:28:37.670Z,1.23
2023-05-14T11:29:47.420Z,1.20
2023-05-14T11:30:56.331Z,1.33
2023-05-14T11:32:02.318Z,0.75
2023-05-14T11:33:07.553Z,1.00
2023-05-14T11:34:11.921Z,1.10
2023-05-14T11:35:16.831Z,1.02
2023-05-14T11:36:27.904Z,0.73
2023-05-14T11:37:34.956Z,0.90
2023-05-14T11:38:52.735Z,0.93
2023-05-14T11:40:19.725Z,1.00
2023-05-14T11:41:23.680Z,0.77
2023-05-14T11:42:28.800Z,0.88
2023-05-14T11:43:38.601Z,1.20
2023-05-14T11:44:54.262Z,1.30
2023-05-14T11:46:06.333Z,0.85
2023-05-14T11:47:21.776Z,0.82
2023-05-14T11:48:27.419Z,0.88
2023-05-14T11:49:37.584Z,0.70
2023-05-14T11:50:53.586Z,0.90
2023-05-14T11:52:56.216Z,0.90
2023-05-14T11:53:41.741Z,1.00
2023-05-14T11:54:54.782Z,1.00
2023-05-14T11:56:07.688Z,1.00
2023-05-14T11:57:21.306Z,0.90
2023-05-14T11:58:26.138Z,1.23
2023-05-14T11:59:41.146Z,0.70
2023-05-14T12:00:48.661Z,0.88
2023-05-14T12:01:54.967Z,0.60
2023-05-14T12:03:03.758Z,0.82
2023-05-14T12:04:07.916Z,0.70
2023-05-14T12:05:14.987Z,0.80
2023-05-14T12:06:22.129Z,0.77
2023-05-14T12:07:30.967Z,1.20
2023-05-14T12:08:34.658Z,0.85
2023-05-14T12:09:44.228Z,0.90
2023-05-14T12:10:49.034Z,0.80
2023-05-14T12:11:53.336Z,1.05
2023-05-14T12:12:57.250Z,1.52
2023-05-14T12:14:01.561Z,0.90
2023-05-14T12:15:19.258Z,0.85
2023-05-14T12:16:23.746Z,0.95
2023-05-14T12:17:34.655Z,1.50
2023-05-14T12:18:39.108Z,0.80
2023-05-14T12:19:46.298Z,0.63
2023-05-14T12:21:06.035Z,0.90
2023-05-14T12:22:18.470Z,1.15
2023-05-14T12:23:33.947Z,0.80
2023-05-14T12:24:39.513Z,0.65
2023-05-14T12:26:04.367Z,0.63
2023-05-14T12:27:10.879Z,0.70
2023-05-14T12:29:49.665Z,0.80
2023-05-14T12:31:00.737Z,0.82
2023-05-14T12:32:09.649Z,1.38
2023-05-14T12:33:14.803Z,0.70
2023-05-14T12:34:21.310Z,1.05
2023-05-14T12:35:25.726Z,0.73
2023-05-14T12:36:31.155Z,0.95
2023-05-14T12:37:37.433Z,0.90
2023-05-14T12:38:48.556Z,0.82
2023-05-14T12:39:57.408Z,1.58
2023-05-14T12:41:06.706Z,0.90
2023-05-14T12:42:14.477Z,0.90
2023-05-14T12:43:24.563Z,1.15
2023-05-14T12:44:40.048Z,0.90
2023-05-14T12:45:50.330Z,0.70
2023-05-14T12:47:11.757Z,1.02
2023-05-14T12:48:18.725Z,0.70
2023-05-14T12:49:23.626Z,1.25
2023-05-14T12:50:40.678Z,0.80
2023-05-14T12:51:47.759Z,0.75
2023-05-14T12:53:02.174Z,0.93
2023-05-14T12:54:13.403Z,0.70
2023-05-14T12:55:31.999Z,1.05
2023-05-14T12:56:38.067Z,1.23
2023-05-14T12:57:42.580Z,0.93
2023-05-14T12:58:49.187Z,0.93
2023-05-14T12:59:54.546Z,0.82
2023-05-14T13:00:58.607Z,0.68
2023-05-14T13:02:03.226Z,0.88
2023-05-14T13:03:13.507Z,1.00
2023-05-14T13:04:23.404Z,0.93
2023-05-14T13:05:30.579Z,1.30
2023-05-14T13:06:38.750Z,0.88
2023-05-14T13:07:44.365Z,0.93
2023-05-14T13:08:51.042Z,0.90
2023-05-14T13:10:02.765Z,1.00
2023-05-14T13:11:06.625Z,0.93
2023-05-14T13:12:10.654Z,0.75
2023-05-14T13:13:26.492Z,1.00
2023-05-14T13:14:30.235Z,0.90
2023-05-14T13:15:33.941Z,0.88
2023-05-14T13:16:38.249Z,0.80
2023-05-14T13:17:42.099Z,0.80
2023-05-14T13:18:47.560Z,0.88
2023-05-14T13:19:51.467Z,0.95
2023-05-14T13:20:55.108Z,0.80
2023-05-14T13:21:58.696Z,1.08
2023-05-14T13:23:02.303Z,0.95
2023-05-14T13:24:07.208Z,0.80
2023-05-14T13:25:11.374Z,0.95
2023-05-14T13:26:19.641Z,0.95
2023-05-14T13:27:32.068Z,0.80
2023-05-14T13:28:55.852Z,0.70
2023-05-14T13:30:14.348Z,1.13
2023-05-14T13:31:23.036Z,1.17
2023-05-14T13:32:32.084Z,0.80
2023-05-14T13:33:42.327Z,0.93
2023-05-14T13:34:55.283Z,0.80
2023-05-14T13:36:04.054Z,0.80
2023-05-14T13:37:23.103Z,0.77
2023-05-14T13:38:39.868Z,0.68
2023-05-14T13:39:57.664Z,0.70
2023-05-14T13:41:05.649Z,0.90
2023-05-14T13:42:14.995Z,0.80
2023-05-14T13:43:20.318Z,0.70
2023-05-14T13:44:27.141Z,1.27
2023-05-14T13:45:36.395Z,1.13
2023-05-14T13:46:45.316Z,0.68
2023-05-14T13:48:02.984Z,0.95
2023-05-14T13:49:14.966Z,0.65
2023-05-14T13:50:33.352Z,0.80
2023-05-14T13:52:10.520Z,0.80
2023-05-14T13:53:30.498Z,0.70
2023-05-14T13:54:43.385Z,0.63
2023-05-14T13:56:00.317Z,0.90
2023-05-14T13:57:24.678Z,1.10
2023-05-14T13:59:10.950Z,1.08
2023-05-14T14:00:22.668Z,0.77
2023-05-14T14:01:33.987Z,0.80
2023-05-14T14:02:50.109Z,0.88
2023-05-14T14:04:21.699Z,1.13
2023-05-14T14:05:37.522Z,0.73
2023-05-14T14:06:46.633Z,0.60
2023-05-14T14:08:00.954Z,1.00
2023-05-14T14:09:40.054Z,0.88
2023-05-14T14:10:47.428Z,0.73
2023-05-14T14:11:56.360Z,0.93
2023-05-14T14:13:03.672Z,0.90
2023-05-14T14:14:12.039Z,0.70
2023-05-14T14:15:32.146Z,0.60
2023-05-14T14:16:37.164Z,0.70
2023-05-14T14:17:50.420Z,0.82
2023-05-14T14:18:57.053Z,0.70
2023-05-14T14:20:19.810Z,0.70
2023-05-14T14:21:28.692Z,0.73
2023-05-14T14:24:01.140Z,0.90
2023-05-14T14:25:15.519Z,0.90
2023-05-14T14:26:30.430Z,1.00
2023-05-14T14:27:47.461Z,0.60
2023-05-14T14:28:58.259Z,0.82
2023-05-14T14:30:18.000Z,1.10
2023-05-14T14:31:25.561Z,0.70
2023-05-14T14:32:41.736Z,0.90
2023-05-14T14:33:48.242Z,0.73
2023-05-14T14:35:00.411Z,0.70
2023-05-14T14:36:06.212Z,0.93
2023-05-14T14:37:17.262Z,0.90
2023-05-14T14:38:44.828Z,0.80
2023-05-14T14:40:03.349Z,1.02
2023-05-14T14:41:18.556Z,1.17
2023-05-14T14:42:33.786Z,0.93
2023-05-14T14:43:41.351Z,0.77
2023-05-14T14:44:49.431Z,1.05
2023-05-14T14:45:58.098Z,1.33
2023-05-14T14:47:07.670Z,0.90
2023-05-14T14:48:46.698Z,0.70
2023-05-14T14:49:51.697Z,0.95
2023-05-14T14:50:58.616Z,0.90
2023-05-14T14:52:15.115Z,1.10
2023-05-14T14:53:40.582Z,0.80
2023-05-14T14:55:04.579Z,1.08
2023-05-14T14:56:34.884Z,0.90
2023-05-14T14:57:44.340Z,1.00
2023-05-14T14:58:54.002Z,0.70
2023-05-14T15:00:06.973Z,0.93
2023-05-14T15:01:19.742Z,1.00
2023-05-14T15:02:25.237Z,0.88
2023-05-14T15:03:32.884Z,1.00
2023-05-14T15:04:48.733Z,0.93
2023-05-14T15:06:08.773Z,0.90
2023-05-14T15:07:23.984Z,1.08
2023-05-14T15:08:32.117Z,1.02
2023-05-14T15:09:38.316Z,0.90
2023-05-14T15:10:45.075Z,0.88
2023-05-14T15:11:54.298Z,0.88
2023-05-14T15:13:01.828Z,0.88
2023-05-14T15:14:09.273Z,1.00
2023-05-14T15:15:31.207Z,0.93
2023-05-14T15:16:43.482Z,0.80
2023-05-14T15:17:55.301Z,0.90
2023-05-14T15:19:02.921Z,1.42
2023-05-14T15:21:43.931Z,1.02
2023-05-14T15:24:53.051Z,0.93
2023-05-14T15:25:57.003Z,0.73
2023-05-14T15:27:02.093Z,0.90
2023-05-14T15:28:11.168Z,1.27
2023-05-14T15:29:18.674Z,0.80
2023-05-14T15:30:36.136Z,0.80
2023-05-14T15:31:42.953Z,1.10
2023-05-14T15:32:50.711Z,0.93
2023-05-14T15:34:03.762Z,0.98
2023-05-14T15:35:11.069Z,0.90
2023-05-14T15:36:15.269Z,1.35
2023-05-14T15:37:19.334Z,1.05
2023-05-14T15:38:23.036Z,1.13
2023-05-14T15:39:28.417Z,0.85
2023-05-14T15:40:35.120Z,1.10
2023-05-14T15:41:39.155Z,1.35
2023-05-14T15:42:44.560Z,1.23
2023-05-14T15:43:51.188Z,1.17
2023-05-14T15:44:55.849Z,0.88
2023-05-14T15:45:59.900Z,0.80
2023-05-14T15:47:03.679Z,0.80
2023-05-14T15:48:11.808Z,1.10
2023-05-14T15:49:22.708Z,1.02
2023-05-14T15:50:33.173Z,0.98
2023-05-14T15:51:47.744Z,1.10
2023-05-14T15:52:55.835Z,0.80
2023-05-14T15:54:03.048Z,0.80
2023-05-14T15:55:12.126Z,1.02
2023-05-14T15:56:27.521Z,0.93
2023-05-14T15:57:40.670Z,0.90
2023-05-14T15:59:07.056Z,0.90
2023-05-14T16:00:22.329Z,1.10
2023-05-14T16:01:39.867Z,0.93
2023-05-14T16:02:46.140Z,0.60
2023-05-14T16:04:03.273Z,0.98
2023-05-14T16:05:17.032Z,1.35
2023-05-14T16:06:41.769Z,1.10
2023-05-14T16:07:55.741Z,1.23
2023-05-14T16:09:01.790Z,1.25
2023-05-14T16:10:06.981Z,0.90
2023-05-14T16:11:11.021Z,1.30
2023-05-14T16:12:18.048Z,1.20
2023-05-14T16:13:22.495Z,1.00
2023-05-14T16:14:26.743Z,1.35
2023-05-14T16:15:30.774Z,0.80
2023-05-14T16:16:34.482Z,0.80
2023-05-14T16:17:39.103Z,0.95
2023-05-14T16:18:43.603Z,0.90
2023-05-14T16:19:47.805Z,1.00
2023-05-14T16:20:52.256Z,0.88
2023-05-14T16:21:59.526Z,1.25
2023-05-14T16:23:03.385Z,0.85
2023-05-14T16:24:08.213Z,1.00
2023-05-14T16:25:15.638Z,0.90
2023-05-14T16:26:21.069Z,0.90
2023-05-14T16:27:26.286Z,1.30
2023-05-14T16:28:31.225Z,0.98
2023-05-14T16:29:35.218Z,1.10
2023-05-14T16:30:39.632Z,1.17
2023-05-14T16:31:44.357Z,1.00
2023-05-14T16:32:49.689Z,1.10
2023-05-14T16:33:56.583Z,1.13
2023-05-14T16:35:02.768Z,1.10
2023-05-14T16:36:14.542Z,0.73
2023-05-14T16:37:20.573Z,0.93
2023-05-14T16:38:24.765Z,1.10
2023-05-14T16:39:28.991Z,1.25
2023-05-14T16:40:33.055Z,1.08
2023-05-14T16:41:36.886Z,0.88
2023-05-14T16:42:40.836Z,1.00
2023-05-14T16:43:45.657Z,1.00
2023-05-14T16:44:50.047Z,1.00
2023-05-14T16:45:56.658Z,1.00
2023-05-14T16:47:01.155Z,1.00
2023-05-14T16:48:05.516Z,1.13
2023-05-14T16:49:09.511Z,1.00
2023-05-14T16:50:13.841Z,1.00
2023-05-14T16:51:18.154Z,1.10
2023-05-14T16:52:22.240Z,1.20
2023-05-14T16:53:26.722Z,0.95
2023-05-14T16:54:31.166Z,1.13
2023-05-14T16:55:35.184Z,0.90
2023-05-14T16:56:39.581Z,0.90
2023-05-14T16:57:43.867Z,0.80
2023-05-14T16:58:49.654Z,0.98
2023-05-14T16:59:54.108Z,1.15
2023-05-14T17:00:58.104Z,1.52
2023-05-14T17:02:01.958Z,1.00
2023-05-14T17:03:07.805Z,1.10
2023-05-14T17:04:12.530Z,1.02
2023-05-14T17:05:17.108Z,1.10
2023-05-14T17:06:22.158Z,1.08
2023-05-14T17:07:26.259Z,1.48
2023-05-14T17:08:33.656Z,0.70
2023-05-14T17:09:37.965Z,1.20
2023-05-14T17:10:41.801Z,1.00
2023-05-14T17:11:45.993Z,0.90
2023-05-14T17:12:50.008Z,1.02
2023-05-14T17:13:54.594Z,0.95
2023-05-14T17:15:04.495Z,1.23
2023-05-14T17:16:09.588Z,1.30
2023-05-14T17:17:13.302Z,0.93
2023-05-14T17:18:17.859Z,1.20
2023-05-14T17:19:21.987Z,1.13
2023-05-14T17:20:25.822Z,1.25
2023-05-14T17:21:29.572Z,1.00
2023-05-14T17:22:33.212Z,1.80
2023-05-14T17:23:37.144Z,1.10
2023-05-14T17:24:43.457Z,1.20
2023-05-14T17:25:47.286Z,1.00
2023-05-14T17:26:51.051Z,0.90
2023-05-14T17:27:54.685Z,1.30
2023-05-14T17:28:59.228Z,1.88
2023-05-14T17:30:05.183Z,2.03
2023-05-14T17:31:09.683Z,1.30
2023-05-14T17:32:13.615Z,1.13
2023-05-14T17:33:18.213Z,1.13
2023-05-14T17:34:22.215Z,0.90
2023-05-14T17:35:26.626Z,1.00
2023-05-14T17:36:32.119Z,0.73
2023-05-14T17:37:37.057Z,0.82
2023-05-14T17:38:41.969Z,1.00
2023-05-14T17:39:46.056Z,1.08
2023-05-14T17:40:50.046Z,1.40
2023-05-14T17:41:54.054Z,1.17
2023-05-14T17:42:59.531Z,0.80
2023-05-14T17:44:03.179Z,0.80
2023-05-14T17:45:09.027Z,0.90
2023-05-14T17:46:15.730Z,1.17
2023-05-14T17:47:20.837Z,1.25
2023-05-14T17:48:25.475Z,0.93
2023-05-14T17:49:29.332Z,0.82
2023-05-14T17:50:33.191Z,1.08
2023-05-14T17:51:37.305Z,0.90
2023-05-14T17:52:44.487Z,1.35
2023-05-14T17:53:48.451Z,0.80
2023-05-14T17:54:52.716Z,0.77
2023-05-14T17:56:00.045Z,1.08
2023-05-14T17:57:04.687Z,1.00
2023-05-14T17:58:08.927Z,1.23
2023-05-14T17:59:24.712Z,1.23
2023-05-14T18:00:28.543Z,1.35
2023-05-14T18:01:32.556Z,1.67
2023-05-14T18:02:40.675Z,1.10
2023-05-14T18:03:44.918Z,1.00
2023-05-14T18:04:48.623Z,1.27
2023-05-14T18:05:52.810Z,1.00
2023-05-14T18:06:58.449Z,1.10
2023-05-14T18:08:02.633Z,1.10
2023-05-14T18:09:06.315Z,1.17
2023-05-14T18:10:10.574Z,1.13
2023-05-14T18:11:14.470Z,0.80
2023-05-14T18:12:19.052Z,0.93
2023-05-14T18:13:23.275Z,1.83
2023-05-14T18:14:27.195Z,0.90
2023-05-14T18:15:31.679Z,1.02
2023-05-14T18:16:41.936Z,1.17
2023-05-14T18:17:49.813Z,1.15
2023-05-14T18:18:53.940Z,0.80
2023-05-14T18:19:59.125Z,1.27
2023-05-14T18:21:03.261Z,1.05
2023-05-14T18:22:07.475Z,1.33
2023-05-14T18:23:11.894Z,0.80
2023-05-14T18:24:16.575Z,0.80
2023-05-14T18:25:21.404Z,1.17
2023-05-14T18:26:27.700Z,1.13
2023-05-14T18:27:34.509Z,0.60
2023-05-14T18:28:38.813Z,0.80
2023-05-14T18:29:45.487Z,0.70
2023-05-14T18:30:49.971Z,0.77
2023-05-14T18:31:54.027Z,0.50
2023-05-14T18:33:02.440Z,0.90
2023-05-14T18:34:07.053Z,1.00
2023-05-14T18:35:12.927Z,0.80
2023-05-14T18:36:18.779Z,0.57
2023-05-14T18:37:23.027Z,1.30
2023-05-14T18:38:28.062Z,0.82
2023-05-14T18:39:33.565Z,0.90
2023-05-14T18:40:38.274Z,0.90
2023-05-14T18:41:47.139Z,0.82
2023-05-14T18:42:51.702Z,1.05
2023-05-14T18:44:07.838Z,0.90
2023-05-14T18:45:12.330Z,0.95
2023-05-14T18:46:16.478Z,0.90
2023-05-14T18:47:20.840Z,0.90
2023-05-14T18:48:25.998Z,0.70
2023-05-14T18:49:30.258Z,1.27
2023-05-14T18:50:40.811Z,0.88
2023-05-14T18:51:44.978Z,0.95
2023-05-14T18:52:49.246Z,0.80
2023-05-14T18:53:53.232Z,0.98
2023-05-14T18:54:57.360Z,0.85
2023-05-14T18:56:01.179Z,1.02
2023-05-14T18:57:05.511Z,1.50
2023-05-14T18:58:09.826Z,0.80
2023-05-14T18:59:13.555Z,0.80
2023-05-14T19:00:20.072Z,0.88
2023-05-14T19:01:25.977Z,1.30
2023-05-14T19:02:30.110Z,1.52
2023-05-14T19:03:34.833Z,0.82
2023-05-14T19:04:51.240Z,1.50
2023-05-14T19:05:56.871Z,1.23
2023-05-14T19:07:01.026Z,1.55
2023-05-14T19:08:05.474Z,1.63
2023-05-14T19:09:10.982Z,1.25
2023-05-14T19:10:15.238Z,0.80
2023-05-14T19:11:19.301Z,2.25
2023-05-14T19:12:26.884Z,1.00
2023-05-14T19:13:30.785Z,0.90
2023-05-14T19:14:34.600Z,1.13
2023-05-14T19:15:38.945Z,0.88
2023-05-14T19:16:42.940Z,0.95
2023-05-14T19:17:46.800Z,1.00
2023-05-14T19:18:50.880Z,0.93
2023-05-14T19:19:54.860Z,0.88
2023-05-14T19:20:59.117Z,0.90
2023-05-14T19:22:02.855Z,1.08
2023-05-14T19:23:06.549Z,1.00
2023-05-14T19:24:10.268Z,1.20
2023-05-14T19:25:14.602Z,0.80
2023-05-14T19:26:23.425Z,1.25
2023-05-14T19:27:28.942Z,2.47
2023-05-14T19:28:33.922Z,2.88
2023-05-14T19:29:39.012Z,2.22
2023-05-14T19:30:43.559Z,1.77
2023-05-14T19:31:47.941Z,2.17
2023-05-14T19:32:52.443Z,1.67
2023-05-14T19:33:56.900Z,1.23
2023-05-14T19:35:03.089Z,1.23
2023-05-14T19:36:08.066Z,1.30
2023-05-14T19:37:12.385Z,1.08
2023-05-14T19:38:16.478Z,1.27
2023-05-14T19:39:21.181Z,1.20
2023-05-14T19:40:25.253Z,1.25
2023-05-14T19:41:30.573Z,0.70
2023-05-14T19:42:34.720Z,1.13
2023-05-14T19:43:39.487Z,1.10
2023-05-14T19:44:44.226Z,0.85
2023-05-14T19:45:48.711Z,1.10
2023-05-14T19:46:53.062Z,1.85
2023-05-14T19:47:59.933Z,1.40
2023-05-14T19:49:04.059Z,1.20
2023-05-14T19:50:09.500Z,1.10
2023-05-14T19:51:13.645Z,1.35
2023-05-14T19:52:17.546Z,1.30
2023-05-14T19:53:22.437Z,0.80
2023-05-14T19:54:26.890Z,1.33
2023-05-14T19:55:31.056Z,1.00
2023-05-14T19:56:35.596Z,0.93
2023-05-14T19:57:40.596Z,1.48
2023-05-14T19:58:46.011Z,1.83
2023-05-14T19:59:53.853Z,1.00
2023-05-14T20:00:59.075Z,1.23
2023-05-14T20:02:04.761Z,0.95
2023-05-14T20:03:10.344Z,0.70
2023-05-14T20:04:16.707Z,1.00
2023-05-14T20:05:21.533Z,1.23
2023-05-14T20:06:26.120Z,1.52
2023-05-14T20:07:30.403Z,1.17
2023-05-14T20:08:34.601Z,0.93
2023-05-14T20:09:38.867Z,1.13
2023-05-14T20:10:45.737Z,0.73
2023-05-14T20:11:49.684Z,1.10
